JSA165 WSSS-YBRM
Flight info
| Callsign | JSA165 |
|---|---|
| Flight time | 3h 52m |
| Altitude | 35000 |
| Route | ANITO8B ANITO B470 PKP L511 SBR/N0449F370 L511 BOPLO T20 BRM |
| Aircraft | A320/M-SDE3FGHIRWY/LB1 |
Departure
| Time | 2026-04-16 02:35 |
|---|---|
| Airport | Singapore Changi Airport (WSSS) |
Arrival
| Time | 2026-04-16 06:27 |
|---|---|
| Airport | Broome International Airport (YBRM) |
| Time | Latitude | Longitude | Altitude | Speed | Heading |
|---|---|---|---|---|---|
| 2026-04-16 01:45 | 1.33877 | 103.98504 | 31 ft | 0 kts | 293° |
| 2026-04-16 02:22 | 1.33874 | 103.98511 | 30 ft | 4 kts | 296° |
| 2026-04-16 02:22 | 1.33859 | 103.98532 | 30 ft | 4 kts | 326° |
| 2026-04-16 02:23 | 1.33836 | 103.98540 | 30 ft | 4 kts | 14° |
| 2026-04-16 02:23 | 1.33829 | 103.98538 | 30 ft | 0 kts | 23° |
| 2026-04-16 02:25 | 1.33832 | 103.98539 | 30 ft | 2 kts | 23° |
| 2026-04-16 02:26 | 1.33853 | 103.98548 | 30 ft | 4 kts | 23° |
| 2026-04-16 02:26 | 1.33900 | 103.98568 | 30 ft | 9 kts | 23° |
| 2026-04-16 02:26 | 1.33962 | 103.98594 | 30 ft | 11 kts | 22° |
| 2026-04-16 02:26 | 1.34035 | 103.98624 | 30 ft | 12 kts | 22° |
| 2026-04-16 02:27 | 1.34076 | 103.98666 | 30 ft | 8 kts | 99° |
| 2026-04-16 02:27 | 1.34050 | 103.98724 | 30 ft | 10 kts | 114° |
| 2026-04-16 02:27 | 1.34048 | 103.98791 | 30 ft | 11 kts | 49° |
| 2026-04-16 02:27 | 1.34119 | 103.98826 | 30 ft | 12 kts | 22° |
| 2026-04-16 02:28 | 1.34202 | 103.98860 | 30 ft | 14 kts | 23° |
| 2026-04-16 02:28 | 1.34304 | 103.98903 | 30 ft | 18 kts | 23° |
| 2026-04-16 02:28 | 1.34421 | 103.98953 | 30 ft | 19 kts | 23° |
| 2026-04-16 02:28 | 1.34550 | 103.99007 | 30 ft | 21 kts | 22° |
| 2026-04-16 02:29 | 1.34689 | 103.99066 | 30 ft | 22 kts | 23° |
| 2026-04-16 02:29 | 1.34837 | 103.99128 | 30 ft | 23 kts | 23° |
| 2026-04-16 02:29 | 1.34980 | 103.99188 | 30 ft | 22 kts | 23° |
| 2026-04-16 02:29 | 1.35122 | 103.99248 | 30 ft | 23 kts | 22° |
| 2026-04-16 02:30 | 1.35269 | 103.99309 | 30 ft | 23 kts | 22° |
| 2026-04-16 02:30 | 1.35411 | 103.99369 | 30 ft | 21 kts | 23° |
| 2026-04-16 02:30 | 1.35537 | 103.99422 | 30 ft | 18 kts | 22° |
| 2026-04-16 02:30 | 1.35657 | 103.99473 | 30 ft | 19 kts | 23° |
| 2026-04-16 02:31 | 1.35786 | 103.99527 | 30 ft | 20 kts | 22° |
| 2026-04-16 02:31 | 1.35919 | 103.99583 | 30 ft | 20 kts | 23° |
| 2026-04-16 02:31 | 1.36029 | 103.99629 | 30 ft | 13 kts | 22° |
| 2026-04-16 02:31 | 1.36119 | 103.99668 | 30 ft | 15 kts | 23° |
| 2026-04-16 02:32 | 1.36220 | 103.99710 | 30 ft | 16 kts | 23° |
| 2026-04-16 02:32 | 1.36249 | 103.99760 | 30 ft | 6 kts | 114° |
| 2026-04-16 02:32 | 1.36242 | 103.99774 | 30 ft | 2 kts | 117° |
| 2026-04-16 02:32 | 1.36233 | 103.99794 | 30 ft | 6 kts | 114° |
| 2026-04-16 02:33 | 1.36200 | 103.99867 | 30 ft | 10 kts | 115° |
| 2026-04-16 02:33 | 1.36144 | 103.99876 | 30 ft | 1 kts | 202° |
| 2026-04-16 02:34 | 1.36141 | 103.99875 | 30 ft | 4 kts | 202° |
| 2026-04-16 02:34 | 1.35944 | 103.99792 | 30 ft | 64 kts | 203° |
| 2026-04-16 02:34 | 1.35338 | 103.99536 | 30 ft | 122 kts | 203° |
| 2026-04-16 02:34 | 1.34414 | 103.99146 | 31 ft | 165 kts | 203° |
| 2026-04-16 02:35 | 1.33277 | 103.98658 | 330 ft | 178 kts | 202° |
| 2026-04-16 02:35 | 1.32160 | 103.98162 | 1006 ft | 175 kts | 201° |
| 2026-04-16 02:35 | 1.31041 | 103.97681 | 1607 ft | 176 kts | 201° |
| 2026-04-16 02:35 | 1.29880 | 103.97196 | 1951 ft | 190 kts | 201° |
| 2026-04-16 02:36 | 1.28590 | 103.96657 | 2097 ft | 212 kts | 201° |
| 2026-04-16 02:36 | 1.27171 | 103.96062 | 2321 ft | 231 kts | 201° |
| 2026-04-16 02:36 | 1.25615 | 103.95413 | 2580 ft | 254 kts | 201° |
| 2026-04-16 02:36 | 1.23907 | 103.94816 | 3150 ft | 264 kts | 190° |
| 2026-04-16 02:37 | 1.22104 | 103.94686 | 3888 ft | 265 kts | 175° |
| 2026-04-16 02:37 | 1.20259 | 103.95043 | 4668 ft | 268 kts | 166° |
| 2026-04-16 02:37 | 1.18461 | 103.95492 | 5425 ft | 271 kts | 166° |
| 2026-04-16 02:37 | 1.16622 | 103.95946 | 6180 ft | 274 kts | 166° |
| 2026-04-16 02:38 | 1.14766 | 103.96404 | 6919 ft | 276 kts | 167° |
| 2026-04-16 02:38 | 1.12890 | 103.96865 | 7615 ft | 279 kts | 167° |
| 2026-04-16 02:38 | 1.11020 | 103.97448 | 8273 ft | 284 kts | 156° |
| 2026-04-16 02:38 | 1.09330 | 103.98491 | 8916 ft | 289 kts | 143° |
| 2026-04-16 02:39 | 1.07734 | 103.99723 | 9546 ft | 292 kts | 143° |
| 2026-04-16 02:39 | 1.06117 | 104.00972 | 10162 ft | 296 kts | 143° |
| 2026-04-16 02:39 | 1.04455 | 104.02293 | 10340 ft | 316 kts | 139° |
| 2026-04-16 02:39 | 1.02930 | 104.03976 | 10477 ft | 337 kts | 127° |
| 2026-04-16 02:40 | 1.01757 | 104.06051 | 10856 ft | 348 kts | 114° |
| 2026-04-16 02:40 | 1.00822 | 104.08294 | 11384 ft | 352 kts | 114° |
| 2026-04-16 02:40 | 0.99867 | 104.10554 | 11943 ft | 354 kts | 114° |
| 2026-04-16 02:40 | 0.98895 | 104.12830 | 12504 ft | 358 kts | 114° |
| 2026-04-16 02:41 | 0.97917 | 104.15125 | 13068 ft | 360 kts | 114° |
| 2026-04-16 02:41 | 0.96937 | 104.17441 | 13618 ft | 363 kts | 114° |
| 2026-04-16 02:41 | 0.95954 | 104.19772 | 14156 ft | 366 kts | 114° |
| 2026-04-16 02:41 | 0.94953 | 104.22118 | 14675 ft | 368 kts | 116° |
| 2026-04-16 02:42 | 0.93679 | 104.24345 | 15200 ft | 370 kts | 123° |
| 2026-04-16 02:42 | 0.92312 | 104.26534 | 15695 ft | 372 kts | 122° |
| 2026-04-16 02:42 | 0.90936 | 104.28736 | 16181 ft | 375 kts | 122° |
| 2026-04-16 02:42 | 0.89549 | 104.30954 | 16676 ft | 378 kts | 122° |
| 2026-04-16 02:43 | 0.88155 | 104.33191 | 17161 ft | 380 kts | 122° |
| 2026-04-16 02:43 | 0.86755 | 104.35444 | 17635 ft | 383 kts | 122° |
| 2026-04-16 02:43 | 0.85347 | 104.37711 | 18109 ft | 386 kts | 122° |
| 2026-04-16 02:43 | 0.83928 | 104.39994 | 18578 ft | 388 kts | 122° |
| 2026-04-16 02:44 | 0.82501 | 104.42288 | 19033 ft | 390 kts | 122° |
| 2026-04-16 02:44 | 0.81018 | 104.44575 | 19483 ft | 393 kts | 124° |
| 2026-04-16 02:44 | 0.79458 | 104.46822 | 19964 ft | 395 kts | 126° |
| 2026-04-16 02:44 | 0.77846 | 104.49056 | 20412 ft | 398 kts | 126° |
| 2026-04-16 02:45 | 0.76210 | 104.51296 | 20850 ft | 400 kts | 127° |
| 2026-04-16 02:45 | 0.74543 | 104.53531 | 21285 ft | 402 kts | 130° |
| 2026-04-16 02:45 | 0.72596 | 104.55481 | 21687 ft | 404 kts | 141° |
| 2026-04-16 02:45 | 0.70271 | 104.57062 | 22081 ft | 406 kts | 152° |
| 2026-04-16 02:46 | 0.67671 | 104.58173 | 22452 ft | 408 kts | 162° |
| 2026-04-16 02:46 | 0.64942 | 104.58984 | 22837 ft | 410 kts | 163° |
| 2026-04-16 02:46 | 0.62199 | 104.59796 | 23199 ft | 412 kts | 163° |
| 2026-04-16 02:46 | 0.59440 | 104.60614 | 23542 ft | 415 kts | 163° |
| 2026-04-16 02:47 | 0.56666 | 104.61436 | 23884 ft | 417 kts | 163° |
| 2026-04-16 02:47 | 0.53881 | 104.62261 | 24216 ft | 419 kts | 163° |
| 2026-04-16 02:47 | 0.51085 | 104.63090 | 24538 ft | 421 kts | 163° |
| 2026-04-16 02:47 | 0.48273 | 104.63926 | 24845 ft | 423 kts | 163° |
| 2026-04-16 02:48 | 0.45445 | 104.64769 | 25146 ft | 425 kts | 163° |
| 2026-04-16 02:48 | 0.42605 | 104.65614 | 25443 ft | 427 kts | 163° |
| 2026-04-16 02:48 | 0.39753 | 104.66459 | 25733 ft | 429 kts | 163° |
| 2026-04-16 02:48 | 0.36886 | 104.67310 | 26014 ft | 431 kts | 163° |
| 2026-04-16 02:49 | 0.34008 | 104.68166 | 26293 ft | 432 kts | 163° |
| 2026-04-16 02:49 | 0.31121 | 104.69022 | 26564 ft | 434 kts | 163° |
| 2026-04-16 02:49 | 0.28332 | 104.69847 | 26807 ft | 436 kts | 163° |
| 2026-04-16 02:49 | 0.25411 | 104.70708 | 27054 ft | 438 kts | 163° |
| 2026-04-16 02:50 | 0.22482 | 104.71574 | 27303 ft | 440 kts | 163° |
| 2026-04-16 02:50 | 0.19542 | 104.72448 | 27550 ft | 442 kts | 163° |
| 2026-04-16 02:50 | 0.16587 | 104.73329 | 27789 ft | 444 kts | 163° |
| 2026-04-16 02:50 | 0.13665 | 104.74198 | 28035 ft | 445 kts | 163° |
| 2026-04-16 02:51 | 0.10687 | 104.75082 | 28282 ft | 447 kts | 163° |
| 2026-04-16 02:51 | 0.07699 | 104.75968 | 28515 ft | 449 kts | 163° |
| 2026-04-16 02:51 | 0.04700 | 104.76858 | 28759 ft | 451 kts | 162° |
| 2026-04-16 02:51 | 0.01688 | 104.77754 | 29006 ft | 452 kts | 162° |
| 2026-04-16 02:52 | -0.01331 | 104.78652 | 29271 ft | 453 kts | 162° |
| 2026-04-16 02:52 | -0.04347 | 104.79550 | 29626 ft | 452 kts | 162° |
| 2026-04-16 02:52 | -0.07359 | 104.80447 | 29981 ft | 451 kts | 162° |
| 2026-04-16 02:52 | -0.10363 | 104.81341 | 30328 ft | 450 kts | 162° |
| 2026-04-16 02:53 | -0.13367 | 104.82234 | 30670 ft | 450 kts | 162° |
| 2026-04-16 02:53 | -0.16359 | 104.83121 | 31018 ft | 449 kts | 162° |
| 2026-04-16 02:53 | -0.19352 | 104.84003 | 31379 ft | 447 kts | 162° |
| 2026-04-16 02:53 | -0.22330 | 104.84883 | 31753 ft | 446 kts | 162° |
| 2026-04-16 02:54 | -0.25303 | 104.85764 | 32124 ft | 445 kts | 162° |
| 2026-04-16 02:54 | -0.28184 | 104.86835 | 32482 ft | 441 kts | 153° |
| 2026-04-16 02:54 | -0.30832 | 104.88348 | 32792 ft | 437 kts | 144° |
| 2026-04-16 02:54 | -0.33348 | 104.90054 | 33080 ft | 437 kts | 144° |
| 2026-04-16 02:55 | -0.35859 | 104.91758 | 33408 ft | 436 kts | 144° |
| 2026-04-16 02:55 | -0.38365 | 104.93458 | 33756 ft | 435 kts | 144° |
| 2026-04-16 02:55 | -0.40862 | 104.95150 | 34090 ft | 433 kts | 144° |
| 2026-04-16 02:55 | -0.43351 | 104.96837 | 34411 ft | 431 kts | 144° |
| 2026-04-16 02:56 | -0.45830 | 104.98515 | 34691 ft | 431 kts | 144° |
| 2026-04-16 02:56 | -0.48319 | 105.00195 | 34890 ft | 431 kts | 144° |
| 2026-04-16 02:56 | -0.52482 | 105.03003 | 34944 ft | 437 kts | 144° |
| 2026-04-16 02:57 | -0.57522 | 105.06413 | 34943 ft | 438 kts | 144° |
| 2026-04-16 02:57 | -0.63397 | 105.10393 | 34934 ft | 439 kts | 144° |
| 2026-04-16 02:58 | -0.68456 | 105.13818 | 34932 ft | 439 kts | 144° |
| 2026-04-16 02:58 | -0.73510 | 105.17238 | 34933 ft | 439 kts | 144° |
| 2026-04-16 02:59 | -0.77750 | 105.20104 | 34933 ft | 439 kts | 144° |
| 2026-04-16 02:59 | -0.82774 | 105.23504 | 34938 ft | 439 kts | 144° |
| 2026-04-16 03:00 | -0.87830 | 105.26933 | 34944 ft | 439 kts | 144° |
| 2026-04-16 03:00 | -0.92889 | 105.30359 | 34943 ft | 439 kts | 144° |
| 2026-04-16 03:01 | -0.97950 | 105.33789 | 34950 ft | 439 kts | 144° |
| 2026-04-16 03:01 | -1.03015 | 105.37210 | 34940 ft | 440 kts | 144° |
| 2026-04-16 03:02 | -1.08081 | 105.40636 | 34934 ft | 440 kts | 144° |
| 2026-04-16 03:02 | -1.13157 | 105.44060 | 34926 ft | 441 kts | 144° |
| 2026-04-16 03:03 | -1.18247 | 105.47496 | 34927 ft | 442 kts | 144° |
| 2026-04-16 03:03 | -1.23334 | 105.50943 | 34932 ft | 442 kts | 144° |
| 2026-04-16 03:04 | -1.28425 | 105.54392 | 34932 ft | 442 kts | 144° |
| 2026-04-16 03:04 | -1.33521 | 105.57845 | 34940 ft | 443 kts | 144° |
| 2026-04-16 03:05 | -1.38624 | 105.61298 | 34943 ft | 443 kts | 144° |
| 2026-04-16 03:05 | -1.43727 | 105.64748 | 34940 ft | 443 kts | 144° |
| 2026-04-16 03:06 | -1.48828 | 105.68205 | 34942 ft | 443 kts | 144° |
| 2026-04-16 03:07 | -1.56471 | 105.73386 | 34938 ft | 443 kts | 144° |
| 2026-04-16 03:07 | -1.61575 | 105.76836 | 34931 ft | 443 kts | 144° |
| 2026-04-16 03:08 | -1.66682 | 105.80289 | 34929 ft | 443 kts | 144° |
| 2026-04-16 03:08 | -1.71785 | 105.83754 | 34928 ft | 444 kts | 144° |
| 2026-04-16 03:09 | -1.76893 | 105.87220 | 34930 ft | 444 kts | 144° |
| 2026-04-16 03:09 | -1.81968 | 105.90655 | 34933 ft | 443 kts | 144° |
| 2026-04-16 03:10 | -1.87083 | 105.94113 | 34930 ft | 444 kts | 144° |
| 2026-04-16 03:10 | -1.92193 | 105.97575 | 34926 ft | 444 kts | 144° |
| 2026-04-16 03:11 | -1.97304 | 106.01035 | 34924 ft | 444 kts | 144° |
| 2026-04-16 03:11 | -2.02419 | 106.04498 | 34925 ft | 444 kts | 144° |
| 2026-04-16 03:12 | -2.07533 | 106.07965 | 34930 ft | 444 kts | 144° |
| 2026-04-16 03:12 | -2.12649 | 106.11434 | 34930 ft | 444 kts | 144° |
| 2026-04-16 03:13 | -2.17458 | 106.15268 | 34935 ft | 441 kts | 130° |
| 2026-04-16 03:13 | -2.21267 | 106.20052 | 34931 ft | 440 kts | 126° |
| 2026-04-16 03:14 | -2.25049 | 106.24869 | 34932 ft | 441 kts | 127° |
| 2026-04-16 03:14 | -2.28837 | 106.29688 | 34938 ft | 441 kts | 127° |
| 2026-04-16 03:15 | -2.32618 | 106.34514 | 34940 ft | 441 kts | 127° |
| 2026-04-16 03:15 | -2.36361 | 106.39314 | 34941 ft | 440 kts | 127° |
| 2026-04-16 03:16 | -2.40129 | 106.44140 | 34941 ft | 440 kts | 127° |
| 2026-04-16 03:16 | -2.43902 | 106.48963 | 34942 ft | 440 kts | 127° |
| 2026-04-16 03:17 | -2.47675 | 106.53781 | 34942 ft | 440 kts | 127° |
| 2026-04-16 03:17 | -2.51443 | 106.58599 | 34946 ft | 440 kts | 127° |
| 2026-04-16 03:18 | -2.55201 | 106.63420 | 34943 ft | 440 kts | 127° |
| 2026-04-16 03:18 | -2.58961 | 106.68237 | 34946 ft | 439 kts | 127° |
| 2026-04-16 03:19 | -2.62727 | 106.73054 | 34939 ft | 439 kts | 127° |
| 2026-04-16 03:19 | -2.66490 | 106.77871 | 34948 ft | 439 kts | 127° |
| 2026-04-16 03:20 | -2.70220 | 106.82654 | 34946 ft | 439 kts | 127° |
| 2026-04-16 03:20 | -2.73980 | 106.87462 | 34947 ft | 438 kts | 127° |
| 2026-04-16 03:21 | -2.77731 | 106.92266 | 34943 ft | 438 kts | 127° |
| 2026-04-16 03:21 | -2.81479 | 106.97066 | 34944 ft | 438 kts | 127° |
| 2026-04-16 03:22 | -2.85228 | 107.01861 | 34944 ft | 438 kts | 127° |
| 2026-04-16 03:22 | -2.88974 | 107.06662 | 34943 ft | 438 kts | 127° |
| 2026-04-16 03:23 | -2.92714 | 107.11464 | 34944 ft | 437 kts | 127° |
| 2026-04-16 03:23 | -2.96452 | 107.16259 | 34947 ft | 437 kts | 127° |
| 2026-04-16 03:24 | -3.00194 | 107.21045 | 34938 ft | 437 kts | 127° |
| 2026-04-16 03:24 | -3.03930 | 107.25832 | 34939 ft | 436 kts | 127° |
| 2026-04-16 03:25 | -3.07662 | 107.30618 | 34940 ft | 436 kts | 127° |
| 2026-04-16 03:25 | -3.11391 | 107.35403 | 34939 ft | 436 kts | 127° |
| 2026-04-16 03:26 | -3.15123 | 107.40181 | 34942 ft | 436 kts | 127° |
| 2026-04-16 03:26 | -3.18843 | 107.44960 | 34947 ft | 435 kts | 127° |
| 2026-04-16 03:27 | -3.22564 | 107.49735 | 34941 ft | 435 kts | 127° |
| 2026-04-16 03:27 | -3.26263 | 107.54470 | 34940 ft | 435 kts | 127° |
| 2026-04-16 03:28 | -3.29982 | 107.59239 | 34941 ft | 435 kts | 127° |
| 2026-04-16 03:28 | -3.33698 | 107.64005 | 34947 ft | 434 kts | 127° |
| 2026-04-16 03:29 | -3.37435 | 107.68754 | 34945 ft | 434 kts | 127° |
| 2026-04-16 03:29 | -3.41177 | 107.73482 | 34947 ft | 433 kts | 127° |
| 2026-04-16 03:30 | -3.44911 | 107.78206 | 34949 ft | 432 kts | 127° |
| 2026-04-16 03:30 | -3.48632 | 107.82932 | 34939 ft | 432 kts | 127° |
| 2026-04-16 03:31 | -3.52356 | 107.87656 | 34942 ft | 432 kts | 127° |
| 2026-04-16 03:31 | -3.56078 | 107.92372 | 34942 ft | 432 kts | 127° |
| 2026-04-16 03:32 | -3.59799 | 107.97095 | 34944 ft | 432 kts | 127° |
| 2026-04-16 03:34 | -3.74623 | 108.15897 | 34941 ft | 430 kts | 127° |
| 2026-04-16 03:34 | -3.78322 | 108.20598 | 34934 ft | 429 kts | 127° |
| 2026-04-16 03:35 | -3.82022 | 108.25293 | 34937 ft | 430 kts | 127° |
| 2026-04-16 03:35 | -3.85723 | 108.29989 | 34934 ft | 430 kts | 127° |
| 2026-04-16 03:36 | -3.89420 | 108.34690 | 34937 ft | 430 kts | 127° |
| 2026-04-16 03:36 | -3.93117 | 108.39398 | 34943 ft | 430 kts | 127° |
| 2026-04-16 03:37 | -3.96826 | 108.44104 | 34937 ft | 431 kts | 127° |
| 2026-04-16 03:37 | -4.00543 | 108.48813 | 34934 ft | 431 kts | 127° |
| 2026-04-16 03:38 | -4.04261 | 108.53522 | 34944 ft | 432 kts | 127° |
| 2026-04-16 03:38 | -4.07979 | 108.58246 | 34940 ft | 431 kts | 127° |
| 2026-04-16 03:39 | -4.11686 | 108.62970 | 34938 ft | 431 kts | 127° |
| 2026-04-16 03:39 | -4.15399 | 108.67698 | 34930 ft | 431 kts | 127° |
| 2026-04-16 03:40 | -4.19111 | 108.72420 | 34931 ft | 432 kts | 127° |
| 2026-04-16 03:40 | -4.22804 | 108.77113 | 34938 ft | 432 kts | 127° |
| 2026-04-16 03:41 | -4.26525 | 108.81835 | 34935 ft | 432 kts | 127° |
| 2026-04-16 03:41 | -4.30244 | 108.86571 | 34931 ft | 432 kts | 127° |
| 2026-04-16 03:42 | -4.33965 | 108.91307 | 34927 ft | 433 kts | 127° |
| 2026-04-16 03:42 | -4.37686 | 108.96049 | 34929 ft | 433 kts | 127° |
| 2026-04-16 03:43 | -4.41417 | 109.00794 | 34931 ft | 434 kts | 127° |
| 2026-04-16 03:43 | -4.45148 | 109.05538 | 34932 ft | 433 kts | 127° |
| 2026-04-16 03:44 | -4.48878 | 109.10292 | 34933 ft | 434 kts | 127° |
| 2026-04-16 03:44 | -4.52613 | 109.15045 | 34933 ft | 434 kts | 127° |
| 2026-04-16 03:45 | -4.56352 | 109.19803 | 34939 ft | 435 kts | 127° |
| 2026-04-16 03:45 | -4.60091 | 109.24569 | 34936 ft | 435 kts | 127° |
| 2026-04-16 03:46 | -4.63838 | 109.29329 | 34941 ft | 435 kts | 127° |
| 2026-04-16 03:46 | -4.67579 | 109.34104 | 34941 ft | 436 kts | 127° |
| 2026-04-16 03:47 | -4.71318 | 109.38884 | 34947 ft | 436 kts | 127° |
| 2026-04-16 03:47 | -4.75036 | 109.43627 | 34947 ft | 436 kts | 127° |
| 2026-04-16 03:48 | -4.78786 | 109.48397 | 34941 ft | 436 kts | 127° |
| 2026-04-16 03:48 | -4.82531 | 109.53169 | 34940 ft | 435 kts | 127° |
| 2026-04-16 03:49 | -4.86273 | 109.57943 | 34932 ft | 435 kts | 127° |
| 2026-04-16 03:49 | -4.90014 | 109.62720 | 34937 ft | 436 kts | 127° |
| 2026-04-16 03:50 | -4.93761 | 109.67495 | 34934 ft | 435 kts | 127° |
| 2026-04-16 03:50 | -4.96870 | 109.71464 | 34932 ft | 435 kts | 127° |
| 2026-04-16 03:51 | -5.00606 | 109.76247 | 34929 ft | 436 kts | 127° |
| 2026-04-16 03:51 | -5.04957 | 109.81801 | 34936 ft | 436 kts | 127° |
| 2026-04-16 03:52 | -5.08100 | 109.85805 | 34932 ft | 436 kts | 127° |
| 2026-04-16 03:52 | -5.12455 | 109.91365 | 34942 ft | 436 kts | 127° |
| 2026-04-16 03:53 | -5.15592 | 109.95374 | 34934 ft | 436 kts | 127° |
| 2026-04-16 03:53 | -5.19341 | 110.00161 | 34939 ft | 436 kts | 127° |
| 2026-04-16 03:54 | -5.23059 | 110.04919 | 34931 ft | 436 kts | 127° |
| 2026-04-16 03:54 | -5.26806 | 110.09708 | 34930 ft | 436 kts | 127° |
| 2026-04-16 03:55 | -5.30555 | 110.14505 | 34930 ft | 437 kts | 127° |
| 2026-04-16 03:55 | -5.34302 | 110.19297 | 34933 ft | 437 kts | 127° |
| 2026-04-16 03:56 | -5.38049 | 110.24097 | 34929 ft | 437 kts | 127° |
| 2026-04-16 03:56 | -5.41802 | 110.28890 | 34931 ft | 436 kts | 127° |
| 2026-04-16 03:57 | -5.45543 | 110.33684 | 34927 ft | 436 kts | 127° |
| 2026-04-16 03:57 | -5.49289 | 110.38477 | 34926 ft | 436 kts | 127° |
| 2026-04-16 03:58 | -5.53042 | 110.43209 | 34929 ft | 436 kts | 127° |
| 2026-04-16 03:58 | -5.56831 | 110.47969 | 34925 ft | 436 kts | 127° |
| 2026-04-16 03:59 | -5.60610 | 110.52730 | 34922 ft | 436 kts | 127° |
| 2026-04-16 03:59 | -5.64387 | 110.57497 | 34924 ft | 437 kts | 127° |
| 2026-04-16 04:00 | -5.68159 | 110.62271 | 34930 ft | 436 kts | 127° |
| 2026-04-16 04:00 | -5.71939 | 110.67041 | 34929 ft | 437 kts | 127° |
| 2026-04-16 04:01 | -5.75719 | 110.71817 | 34936 ft | 437 kts | 127° |
| 2026-04-16 04:01 | -5.79504 | 110.76595 | 34939 ft | 437 kts | 127° |
| 2026-04-16 04:02 | -5.83288 | 110.81363 | 34941 ft | 436 kts | 127° |
| 2026-04-16 04:02 | -5.87070 | 110.86141 | 34939 ft | 436 kts | 127° |
| 2026-04-16 04:03 | -5.90846 | 110.90909 | 34942 ft | 436 kts | 127° |
| 2026-04-16 04:03 | -5.94612 | 110.95681 | 34937 ft | 436 kts | 127° |
| 2026-04-16 04:04 | -5.98353 | 111.00417 | 34936 ft | 436 kts | 128° |
| 2026-04-16 04:04 | -6.02124 | 111.05179 | 34937 ft | 435 kts | 127° |
| 2026-04-16 04:05 | -6.05888 | 111.09939 | 34935 ft | 435 kts | 127° |
| 2026-04-16 04:05 | -6.09646 | 111.14703 | 34937 ft | 435 kts | 127° |
| 2026-04-16 04:06 | -6.13414 | 111.19467 | 34934 ft | 435 kts | 128° |
| 2026-04-16 04:06 | -6.17174 | 111.24229 | 34941 ft | 435 kts | 127° |
| 2026-04-16 04:07 | -6.20931 | 111.28987 | 34938 ft | 435 kts | 127° |
| 2026-04-16 04:07 | -6.26562 | 111.36128 | 34942 ft | 434 kts | 128° |
| 2026-04-16 04:08 | -6.30324 | 111.40881 | 34941 ft | 434 kts | 128° |
| 2026-04-16 04:08 | -6.34074 | 111.45635 | 34949 ft | 434 kts | 127° |
| 2026-04-16 04:09 | -6.37823 | 111.50389 | 34951 ft | 434 kts | 127° |
| 2026-04-16 04:09 | -6.41573 | 111.55147 | 34957 ft | 434 kts | 127° |
| 2026-04-16 04:10 | -6.45291 | 111.59868 | 34953 ft | 433 kts | 128° |
| 2026-04-16 04:10 | -6.49034 | 111.64607 | 34953 ft | 433 kts | 128° |
| 2026-04-16 04:11 | -6.52779 | 111.69345 | 34950 ft | 433 kts | 128° |
| 2026-04-16 04:11 | -6.56513 | 111.74088 | 34939 ft | 432 kts | 127° |
| 2026-04-16 04:12 | -6.60245 | 111.78829 | 34932 ft | 432 kts | 128° |
| 2026-04-16 04:12 | -6.63978 | 111.83570 | 34923 ft | 432 kts | 128° |
| 2026-04-16 04:13 | -6.67710 | 111.88310 | 34919 ft | 433 kts | 128° |
| 2026-04-16 04:13 | -6.71451 | 111.93057 | 34921 ft | 433 kts | 128° |
| 2026-04-16 04:14 | -6.75184 | 111.97807 | 34920 ft | 433 kts | 128° |
| 2026-04-16 04:14 | -6.78921 | 112.02558 | 34924 ft | 433 kts | 128° |
| 2026-04-16 04:15 | -6.82658 | 112.07314 | 34929 ft | 433 kts | 128° |
| 2026-04-16 04:15 | -6.86365 | 112.12038 | 34935 ft | 433 kts | 128° |
| 2026-04-16 04:16 | -6.90099 | 112.16789 | 34934 ft | 433 kts | 128° |
| 2026-04-16 04:16 | -6.93831 | 112.21537 | 34932 ft | 432 kts | 128° |
| 2026-04-16 04:17 | -6.97565 | 112.26285 | 34929 ft | 432 kts | 128° |
| 2026-04-16 04:17 | -7.01296 | 112.31036 | 34926 ft | 433 kts | 128° |
| 2026-04-16 04:18 | -7.05022 | 112.35797 | 34924 ft | 433 kts | 128° |
| 2026-04-16 04:18 | -7.08749 | 112.40554 | 34925 ft | 433 kts | 128° |
| 2026-04-16 04:19 | -7.12478 | 112.45309 | 34926 ft | 433 kts | 128° |
| 2026-04-16 04:19 | -7.16203 | 112.50062 | 34922 ft | 432 kts | 128° |
| 2026-04-16 04:20 | -7.19935 | 112.54812 | 34922 ft | 432 kts | 128° |
| 2026-04-16 04:20 | -7.23665 | 112.59560 | 34921 ft | 432 kts | 128° |
| 2026-04-16 04:21 | -7.27367 | 112.64282 | 34922 ft | 433 kts | 128° |
| 2026-04-16 04:21 | -7.31089 | 112.69047 | 34924 ft | 433 kts | 128° |
| 2026-04-16 04:22 | -7.34818 | 112.73813 | 34926 ft | 434 kts | 128° |
| 2026-04-16 04:22 | -7.38800 | 112.78365 | 34934 ft | 434 kts | 138° |
| 2026-04-16 04:23 | -7.43351 | 112.82369 | 34936 ft | 434 kts | 138° |
| 2026-04-16 04:23 | -7.47911 | 112.86365 | 34933 ft | 435 kts | 138° |
| 2026-04-16 04:24 | -7.52463 | 112.90372 | 34934 ft | 434 kts | 138° |
| 2026-04-16 04:24 | -7.57005 | 112.94387 | 34937 ft | 434 kts | 138° |
| 2026-04-16 04:25 | -7.61546 | 112.98399 | 34936 ft | 434 kts | 138° |
| 2026-04-16 04:25 | -7.66094 | 113.02409 | 34934 ft | 434 kts | 138° |
| 2026-04-16 04:26 | -7.70637 | 113.06417 | 34936 ft | 434 kts | 138° |
| 2026-04-16 04:26 | -7.75143 | 113.10401 | 34937 ft | 434 kts | 138° |
| 2026-04-16 04:27 | -7.79680 | 113.14411 | 34936 ft | 434 kts | 138° |
| 2026-04-16 04:27 | -7.84222 | 113.18414 | 34934 ft | 434 kts | 138° |
| 2026-04-16 04:28 | -7.88761 | 113.22417 | 34934 ft | 434 kts | 138° |
| 2026-04-16 04:28 | -7.93297 | 113.26425 | 34938 ft | 433 kts | 138° |
| 2026-04-16 04:29 | -7.97829 | 113.30428 | 34936 ft | 433 kts | 138° |
| 2026-04-16 04:29 | -8.02362 | 113.34445 | 34936 ft | 434 kts | 138° |
| 2026-04-16 04:30 | -8.06892 | 113.38460 | 34940 ft | 434 kts | 138° |
| 2026-04-16 04:30 | -8.11430 | 113.42476 | 34936 ft | 434 kts | 138° |
| 2026-04-16 04:31 | -8.15969 | 113.46492 | 34942 ft | 434 kts | 139° |
| 2026-04-16 04:31 | -8.20507 | 113.50502 | 34943 ft | 433 kts | 138° |
| 2026-04-16 04:32 | -8.25041 | 113.54513 | 34943 ft | 433 kts | 139° |
| 2026-04-16 04:32 | -8.29569 | 113.58526 | 34944 ft | 433 kts | 138° |
| 2026-04-16 04:33 | -8.34068 | 113.62521 | 34948 ft | 434 kts | 138° |
| 2026-04-16 04:33 | -8.38602 | 113.66539 | 34949 ft | 434 kts | 138° |
| 2026-04-16 04:34 | -8.43139 | 113.70559 | 34954 ft | 434 kts | 138° |
| 2026-04-16 04:34 | -8.47669 | 113.74580 | 34954 ft | 433 kts | 138° |
| 2026-04-16 04:35 | -8.52196 | 113.78601 | 34952 ft | 433 kts | 138° |
| 2026-04-16 04:35 | -8.56717 | 113.82619 | 34948 ft | 433 kts | 138° |
| 2026-04-16 04:36 | -8.61233 | 113.86631 | 34944 ft | 432 kts | 138° |
| 2026-04-16 04:36 | -8.65747 | 113.90647 | 34944 ft | 432 kts | 138° |
| 2026-04-16 04:37 | -8.70268 | 113.94661 | 34942 ft | 433 kts | 138° |
| 2026-04-16 04:37 | -8.74793 | 113.98676 | 34940 ft | 433 kts | 138° |
| 2026-04-16 04:38 | -8.79318 | 114.02696 | 34944 ft | 433 kts | 138° |
| 2026-04-16 04:38 | -8.83837 | 114.06719 | 34949 ft | 433 kts | 138° |
| 2026-04-16 04:39 | -8.88360 | 114.10748 | 34953 ft | 433 kts | 138° |
| 2026-04-16 04:39 | -8.92880 | 114.14773 | 34956 ft | 433 kts | 138° |
| 2026-04-16 04:40 | -8.97400 | 114.18792 | 34957 ft | 433 kts | 138° |
| 2026-04-16 04:40 | -9.01918 | 114.22819 | 34956 ft | 433 kts | 138° |
| 2026-04-16 04:41 | -9.06429 | 114.26849 | 34954 ft | 433 kts | 138° |
| 2026-04-16 04:41 | -9.10939 | 114.30889 | 34948 ft | 433 kts | 138° |
| 2026-04-16 04:42 | -9.15431 | 114.34896 | 34942 ft | 433 kts | 138° |
| 2026-04-16 04:42 | -9.19960 | 114.38918 | 34934 ft | 433 kts | 138° |
| 2026-04-16 04:43 | -9.24484 | 114.42949 | 34926 ft | 433 kts | 138° |
| 2026-04-16 04:43 | -9.28994 | 114.46988 | 34920 ft | 433 kts | 138° |
| 2026-04-16 04:44 | -9.33509 | 114.51025 | 34922 ft | 433 kts | 138° |
| 2026-04-16 04:44 | -9.38023 | 114.55057 | 34921 ft | 433 kts | 138° |
| 2026-04-16 04:45 | -9.41776 | 114.58407 | 34920 ft | 433 kts | 138° |
| 2026-04-16 04:45 | -9.46292 | 114.62447 | 34921 ft | 433 kts | 137° |
| 2026-04-16 04:46 | -9.50810 | 114.66493 | 34922 ft | 433 kts | 138° |
| 2026-04-16 04:46 | -9.55328 | 114.70531 | 34923 ft | 433 kts | 137° |
| 2026-04-16 04:47 | -9.59848 | 114.74582 | 34922 ft | 434 kts | 138° |
| 2026-04-16 04:47 | -9.64374 | 114.78626 | 34929 ft | 434 kts | 138° |
| 2026-04-16 04:48 | -9.68904 | 114.82670 | 34925 ft | 434 kts | 138° |
| 2026-04-16 04:48 | -9.73426 | 114.86721 | 34927 ft | 434 kts | 137° |
| 2026-04-16 04:49 | -9.77913 | 114.90748 | 34929 ft | 434 kts | 138° |
| 2026-04-16 04:49 | -9.82437 | 114.94804 | 34934 ft | 434 kts | 137° |
| 2026-04-16 04:50 | -9.86956 | 114.98859 | 34933 ft | 433 kts | 138° |
| 2026-04-16 04:50 | -9.91472 | 115.02907 | 34928 ft | 433 kts | 137° |
| 2026-04-16 04:51 | -9.95983 | 115.06970 | 34932 ft | 434 kts | 137° |
| 2026-04-16 04:51 | -10.00493 | 115.11025 | 34927 ft | 433 kts | 138° |
| 2026-04-16 04:52 | -10.05015 | 115.15078 | 34921 ft | 434 kts | 138° |
| 2026-04-16 04:52 | -10.09536 | 115.19130 | 34915 ft | 434 kts | 138° |
| 2026-04-16 04:53 | -10.14056 | 115.23193 | 34918 ft | 434 kts | 138° |
| 2026-04-16 04:53 | -10.18578 | 115.27261 | 34923 ft | 434 kts | 138° |
| 2026-04-16 04:54 | -10.23102 | 115.31329 | 34928 ft | 435 kts | 138° |
| 2026-04-16 04:54 | -10.27627 | 115.35406 | 34934 ft | 435 kts | 137° |
| 2026-04-16 04:55 | -10.32149 | 115.39487 | 34941 ft | 435 kts | 138° |
| 2026-04-16 04:55 | -10.36652 | 115.43534 | 34944 ft | 435 kts | 138° |
| 2026-04-16 04:56 | -10.41181 | 115.47611 | 34943 ft | 435 kts | 137° |
| 2026-04-16 04:56 | -10.45700 | 115.51695 | 34941 ft | 435 kts | 138° |
| 2026-04-16 04:57 | -10.50222 | 115.55779 | 34943 ft | 435 kts | 137° |
| 2026-04-16 04:57 | -10.54746 | 115.59863 | 34944 ft | 435 kts | 138° |
| 2026-04-16 04:58 | -10.59278 | 115.63943 | 34942 ft | 435 kts | 138° |
| 2026-04-16 04:58 | -10.63808 | 115.68028 | 34948 ft | 435 kts | 138° |
| 2026-04-16 04:59 | -10.68328 | 115.72122 | 34945 ft | 435 kts | 138° |
| 2026-04-16 04:59 | -10.72851 | 115.76206 | 34943 ft | 435 kts | 138° |
| 2026-04-16 05:00 | -10.77382 | 115.80298 | 34948 ft | 435 kts | 138° |
| 2026-04-16 05:00 | -10.81903 | 115.84392 | 34941 ft | 435 kts | 138° |
| 2026-04-16 05:01 | -10.86431 | 115.88491 | 34945 ft | 436 kts | 138° |
| 2026-04-16 05:01 | -10.90965 | 115.92596 | 34949 ft | 436 kts | 138° |
| 2026-04-16 05:02 | -10.95492 | 115.96706 | 34942 ft | 436 kts | 138° |
| 2026-04-16 05:02 | -11.00024 | 116.00808 | 34946 ft | 436 kts | 138° |
| 2026-04-16 05:03 | -11.04569 | 116.04914 | 34944 ft | 436 kts | 138° |
| 2026-04-16 05:04 | -11.11368 | 116.11074 | 34948 ft | 436 kts | 138° |
| 2026-04-16 05:04 | -11.15896 | 116.15192 | 34948 ft | 437 kts | 138° |
| 2026-04-16 05:05 | -11.20397 | 116.19289 | 34950 ft | 437 kts | 138° |
| 2026-04-16 05:05 | -11.24939 | 116.23408 | 34947 ft | 437 kts | 138° |
| 2026-04-16 05:06 | -11.29479 | 116.27521 | 34949 ft | 437 kts | 138° |
| 2026-04-16 05:06 | -11.34019 | 116.31644 | 34945 ft | 437 kts | 138° |
| 2026-04-16 05:07 | -11.38553 | 116.35773 | 34946 ft | 437 kts | 138° |
| 2026-04-16 05:07 | -11.43088 | 116.39899 | 34950 ft | 437 kts | 138° |
| 2026-04-16 05:08 | -11.47631 | 116.44030 | 34949 ft | 438 kts | 138° |
| 2026-04-16 05:08 | -11.52173 | 116.48169 | 34952 ft | 438 kts | 138° |
| 2026-04-16 05:09 | -11.56715 | 116.52313 | 34951 ft | 438 kts | 138° |
| 2026-04-16 05:09 | -11.61260 | 116.56447 | 34950 ft | 438 kts | 138° |
| 2026-04-16 05:10 | -11.65773 | 116.60559 | 34946 ft | 438 kts | 138° |
| 2026-04-16 05:10 | -11.70308 | 116.64705 | 34950 ft | 438 kts | 137° |
| 2026-04-16 05:11 | -11.74842 | 116.68855 | 34952 ft | 438 kts | 138° |
| 2026-04-16 05:11 | -11.79382 | 116.72998 | 34949 ft | 438 kts | 138° |
| 2026-04-16 05:12 | -11.83928 | 116.77135 | 34950 ft | 438 kts | 138° |
| 2026-04-16 05:12 | -11.88466 | 116.81279 | 34947 ft | 438 kts | 138° |
| 2026-04-16 05:13 | -11.92996 | 116.85427 | 34950 ft | 437 kts | 138° |
| 2026-04-16 05:13 | -11.97523 | 116.89568 | 34947 ft | 436 kts | 137° |
| 2026-04-16 05:14 | -12.02057 | 116.93694 | 34941 ft | 437 kts | 139° |
| 2026-04-16 05:14 | -12.06704 | 116.97710 | 34930 ft | 438 kts | 140° |
| 2026-04-16 05:15 | -12.11401 | 117.01691 | 34934 ft | 439 kts | 140° |
| 2026-04-16 05:15 | -12.16054 | 117.05685 | 34934 ft | 440 kts | 140° |
| 2026-04-16 05:16 | -12.20726 | 117.09740 | 34938 ft | 441 kts | 140° |
| 2026-04-16 05:16 | -12.25400 | 117.13785 | 34941 ft | 440 kts | 140° |
| 2026-04-16 05:17 | -12.30072 | 117.17826 | 34947 ft | 440 kts | 140° |
| 2026-04-16 05:17 | -12.34742 | 117.21874 | 34953 ft | 440 kts | 140° |
| 2026-04-16 05:18 | -12.39413 | 117.25923 | 34952 ft | 440 kts | 140° |
| 2026-04-16 05:18 | -12.44083 | 117.29964 | 34953 ft | 440 kts | 140° |
| 2026-04-16 05:19 | -12.48751 | 117.34010 | 34950 ft | 440 kts | 140° |
| 2026-04-16 05:19 | -12.53418 | 117.38059 | 34947 ft | 440 kts | 140° |
| 2026-04-16 05:20 | -12.58093 | 117.42115 | 34955 ft | 440 kts | 140° |
| 2026-04-16 05:20 | -12.62763 | 117.46174 | 34949 ft | 440 kts | 140° |
| 2026-04-16 05:21 | -12.67438 | 117.50232 | 34950 ft | 441 kts | 140° |
| 2026-04-16 05:21 | -12.72115 | 117.54294 | 34949 ft | 441 kts | 140° |
| 2026-04-16 05:22 | -12.76783 | 117.58364 | 34947 ft | 441 kts | 140° |
| 2026-04-16 05:22 | -12.81463 | 117.62433 | 34946 ft | 441 kts | 140° |
| 2026-04-16 05:23 | -12.86142 | 117.66499 | 34944 ft | 441 kts | 140° |
| 2026-04-16 05:23 | -12.90795 | 117.70543 | 34940 ft | 442 kts | 140° |
| 2026-04-16 05:24 | -12.95474 | 117.74626 | 34946 ft | 442 kts | 140° |
| 2026-04-16 05:24 | -13.00156 | 117.78713 | 34944 ft | 442 kts | 140° |
| 2026-04-16 05:25 | -13.04841 | 117.82800 | 34943 ft | 443 kts | 140° |
| 2026-04-16 05:25 | -13.09533 | 117.86892 | 34945 ft | 443 kts | 140° |
| 2026-04-16 05:26 | -13.14226 | 117.90993 | 34949 ft | 443 kts | 140° |
| 2026-04-16 05:26 | -13.18924 | 117.95096 | 34946 ft | 444 kts | 140° |
| 2026-04-16 05:27 | -13.23625 | 117.99195 | 34943 ft | 444 kts | 140° |
| 2026-04-16 05:27 | -13.28325 | 118.03307 | 34943 ft | 444 kts | 140° |
| 2026-04-16 05:28 | -13.33021 | 118.07423 | 34944 ft | 444 kts | 140° |
| 2026-04-16 05:28 | -13.37686 | 118.11510 | 34944 ft | 444 kts | 140° |
| 2026-04-16 05:29 | -13.42384 | 118.15621 | 34934 ft | 444 kts | 140° |
| 2026-04-16 05:29 | -13.47081 | 118.19736 | 34938 ft | 444 kts | 140° |
| 2026-04-16 05:30 | -13.51779 | 118.23855 | 34933 ft | 444 kts | 140° |
| 2026-04-16 05:30 | -13.56477 | 118.27978 | 34936 ft | 445 kts | 140° |
| 2026-04-16 05:31 | -13.61185 | 118.32116 | 34944 ft | 445 kts | 140° |
| 2026-04-16 05:31 | -13.65894 | 118.36249 | 34943 ft | 445 kts | 140° |
| 2026-04-16 05:32 | -13.70604 | 118.40394 | 34950 ft | 446 kts | 140° |
| 2026-04-16 05:32 | -13.75316 | 118.44537 | 34946 ft | 445 kts | 140° |
| 2026-04-16 05:33 | -13.80029 | 118.48672 | 34950 ft | 445 kts | 140° |
| 2026-04-16 05:33 | -13.84738 | 118.52812 | 34948 ft | 445 kts | 140° |
| 2026-04-16 05:34 | -13.89437 | 118.56958 | 34947 ft | 445 kts | 140° |
| 2026-04-16 05:34 | -13.94140 | 118.61100 | 34948 ft | 445 kts | 140° |
| 2026-04-16 05:35 | -13.98835 | 118.65249 | 34946 ft | 445 kts | 140° |
| 2026-04-16 05:35 | -14.03531 | 118.69392 | 34944 ft | 444 kts | 140° |
| 2026-04-16 05:36 | -14.08228 | 118.73540 | 34935 ft | 445 kts | 140° |
| 2026-04-16 05:36 | -14.12903 | 118.77670 | 34928 ft | 446 kts | 140° |
| 2026-04-16 05:37 | -14.17619 | 118.81832 | 34932 ft | 446 kts | 140° |
| 2026-04-16 05:37 | -14.22337 | 118.85997 | 34934 ft | 447 kts | 140° |
| 2026-04-16 05:38 | -14.27050 | 118.90173 | 34931 ft | 447 kts | 140° |
| 2026-04-16 05:38 | -14.30972 | 118.93644 | 34929 ft | 447 kts | 140° |
| 2026-04-16 05:39 | -14.35693 | 118.97824 | 34931 ft | 448 kts | 140° |
| 2026-04-16 05:39 | -14.40420 | 119.02011 | 34932 ft | 448 kts | 140° |
| 2026-04-16 05:40 | -14.45146 | 119.06196 | 34935 ft | 448 kts | 140° |
| 2026-04-16 05:40 | -14.49869 | 119.10394 | 34936 ft | 448 kts | 140° |
| 2026-04-16 05:41 | -14.54595 | 119.14593 | 34936 ft | 448 kts | 140° |
| 2026-04-16 05:41 | -14.59323 | 119.18794 | 34943 ft | 449 kts | 140° |
| 2026-04-16 05:42 | -14.64051 | 119.22995 | 34942 ft | 449 kts | 140° |
| 2026-04-16 05:42 | -14.68792 | 119.27205 | 34943 ft | 450 kts | 140° |
| 2026-04-16 05:43 | -14.73540 | 119.31421 | 34946 ft | 450 kts | 140° |
| 2026-04-16 05:43 | -14.78280 | 119.35640 | 34946 ft | 450 kts | 140° |
| 2026-04-16 05:44 | -14.83015 | 119.39863 | 34943 ft | 449 kts | 140° |
| 2026-04-16 05:44 | -14.87751 | 119.44081 | 34937 ft | 450 kts | 140° |
| 2026-04-16 05:45 | -14.92484 | 119.48303 | 34941 ft | 449 kts | 140° |
| 2026-04-16 05:45 | -14.97221 | 119.52535 | 34935 ft | 450 kts | 140° |
| 2026-04-16 05:46 | -15.01927 | 119.56737 | 34933 ft | 450 kts | 140° |
| 2026-04-16 05:46 | -15.06672 | 119.60975 | 34931 ft | 451 kts | 140° |
| 2026-04-16 05:47 | -15.11423 | 119.65220 | 34937 ft | 451 kts | 140° |
| 2026-04-16 05:47 | -15.16170 | 119.69473 | 34935 ft | 452 kts | 140° |
| 2026-04-16 05:48 | -15.20923 | 119.73727 | 34934 ft | 452 kts | 140° |
| 2026-04-16 05:48 | -15.25683 | 119.77984 | 34940 ft | 452 kts | 140° |
| 2026-04-16 05:49 | -15.30447 | 119.82249 | 34943 ft | 453 kts | 140° |
| 2026-04-16 05:49 | -15.35211 | 119.86528 | 34939 ft | 453 kts | 140° |
| 2026-04-16 05:50 | -15.39977 | 119.90810 | 34942 ft | 453 kts | 140° |
| 2026-04-16 05:50 | -15.44749 | 119.95093 | 34938 ft | 453 kts | 140° |
| 2026-04-16 05:51 | -15.49520 | 119.99371 | 34937 ft | 454 kts | 140° |
| 2026-04-16 05:51 | -15.54293 | 120.03662 | 34932 ft | 454 kts | 140° |
| 2026-04-16 05:52 | -15.59068 | 120.07963 | 34940 ft | 455 kts | 140° |
| 2026-04-16 05:52 | -15.63847 | 120.12273 | 34935 ft | 455 kts | 140° |
| 2026-04-16 05:53 | -15.68631 | 120.16582 | 34932 ft | 456 kts | 140° |
| 2026-04-16 05:53 | -15.73390 | 120.20860 | 34936 ft | 456 kts | 140° |
| 2026-04-16 05:54 | -15.78183 | 120.25178 | 34942 ft | 456 kts | 140° |
| 2026-04-16 05:54 | -15.82968 | 120.29505 | 34934 ft | 456 kts | 140° |
| 2026-04-16 05:55 | -15.87757 | 120.33837 | 34939 ft | 457 kts | 140° |
| 2026-04-16 05:55 | -15.92551 | 120.38172 | 34939 ft | 457 kts | 140° |
| 2026-04-16 05:56 | -15.97340 | 120.42504 | 34944 ft | 457 kts | 140° |
| 2026-04-16 05:56 | -16.02134 | 120.46835 | 34941 ft | 456 kts | 140° |
| 2026-04-16 05:57 | -16.06921 | 120.51167 | 34932 ft | 456 kts | 140° |
| 2026-04-16 05:57 | -16.11707 | 120.55507 | 34933 ft | 457 kts | 140° |
| 2026-04-16 05:58 | -16.16496 | 120.59850 | 34936 ft | 457 kts | 140° |
| 2026-04-16 05:58 | -16.21290 | 120.64205 | 34935 ft | 458 kts | 140° |
| 2026-04-16 05:59 | -16.26091 | 120.68560 | 34938 ft | 458 kts | 140° |
| 2026-04-16 05:59 | -16.30897 | 120.72917 | 34943 ft | 458 kts | 140° |
| 2026-04-16 06:00 | -16.35662 | 120.77255 | 34949 ft | 458 kts | 140° |
| 2026-04-16 06:00 | -16.40469 | 120.81630 | 34946 ft | 459 kts | 140° |
| 2026-04-16 06:01 | -16.45279 | 120.86005 | 34942 ft | 459 kts | 140° |
| 2026-04-16 06:01 | -16.50082 | 120.90385 | 34944 ft | 459 kts | 140° |
| 2026-04-16 06:02 | -16.57283 | 120.96959 | 34942 ft | 459 kts | 140° |
| 2026-04-16 06:02 | -16.62093 | 121.01348 | 34942 ft | 459 kts | 140° |
| 2026-04-16 06:03 | -16.66903 | 121.05734 | 34941 ft | 459 kts | 140° |
| 2026-04-16 06:03 | -16.71709 | 121.10119 | 34745 ft | 456 kts | 140° |
| 2026-04-16 06:04 | -16.74080 | 121.12286 | 34494 ft | 451 kts | 140° |
| 2026-04-16 06:04 | -16.76425 | 121.14434 | 34139 ft | 447 kts | 140° |
| 2026-04-16 06:04 | -16.78756 | 121.16570 | 33634 ft | 445 kts | 140° |
| 2026-04-16 06:04 | -16.81077 | 121.18691 | 33142 ft | 442 kts | 140° |
| 2026-04-16 06:05 | -16.83389 | 121.20803 | 32646 ft | 440 kts | 140° |
| 2026-04-16 06:05 | -16.85683 | 121.22906 | 32159 ft | 438 kts | 140° |
| 2026-04-16 06:05 | -16.87962 | 121.24998 | 31674 ft | 436 kts | 140° |
| 2026-04-16 06:05 | -16.90232 | 121.27082 | 31197 ft | 433 kts | 140° |
| 2026-04-16 06:06 | -16.92490 | 121.29156 | 30734 ft | 430 kts | 140° |
| 2026-04-16 06:06 | -16.94701 | 121.31187 | 30276 ft | 428 kts | 140° |
| 2026-04-16 06:06 | -16.96957 | 121.33261 | 29820 ft | 425 kts | 140° |
| 2026-04-16 06:06 | -16.99141 | 121.35266 | 29387 ft | 423 kts | 140° |
| 2026-04-16 06:07 | -17.01348 | 121.37292 | 28967 ft | 420 kts | 141° |
| 2026-04-16 06:07 | -17.03537 | 121.39299 | 28519 ft | 418 kts | 140° |
| 2026-04-16 06:07 | -17.05720 | 121.41300 | 28103 ft | 416 kts | 140° |
| 2026-04-16 06:07 | -17.07890 | 121.43287 | 27685 ft | 414 kts | 140° |
| 2026-04-16 06:08 | -17.10050 | 121.45268 | 27262 ft | 412 kts | 140° |
| 2026-04-16 06:08 | -17.12205 | 121.47247 | 26828 ft | 411 kts | 140° |
| 2026-04-16 06:08 | -17.14350 | 121.49222 | 26393 ft | 410 kts | 140° |
| 2026-04-16 06:08 | -17.16487 | 121.51189 | 25952 ft | 409 kts | 140° |
| 2026-04-16 06:09 | -17.18620 | 121.53154 | 25504 ft | 408 kts | 140° |
| 2026-04-16 06:09 | -17.20748 | 121.55118 | 25047 ft | 408 kts | 140° |
| 2026-04-16 06:09 | -17.22873 | 121.57079 | 24576 ft | 407 kts | 140° |
| 2026-04-16 06:09 | -17.24989 | 121.59033 | 24113 ft | 406 kts | 140° |
| 2026-04-16 06:10 | -17.27103 | 121.60983 | 23638 ft | 405 kts | 140° |
| 2026-04-16 06:10 | -17.29214 | 121.62929 | 23162 ft | 404 kts | 140° |
| 2026-04-16 06:10 | -17.31316 | 121.64868 | 22689 ft | 402 kts | 140° |
| 2026-04-16 06:10 | -17.33412 | 121.66800 | 22202 ft | 400 kts | 140° |
| 2026-04-16 06:11 | -17.35493 | 121.68722 | 21753 ft | 398 kts | 140° |
| 2026-04-16 06:11 | -17.37563 | 121.70629 | 21267 ft | 395 kts | 140° |
| 2026-04-16 06:11 | -17.39620 | 121.72527 | 20791 ft | 393 kts | 140° |
| 2026-04-16 06:11 | -17.41666 | 121.74417 | 20320 ft | 391 kts | 140° |
| 2026-04-16 06:12 | -17.43695 | 121.76293 | 19854 ft | 388 kts | 140° |
| 2026-04-16 06:12 | -17.45709 | 121.78156 | 19406 ft | 385 kts | 140° |
| 2026-04-16 06:12 | -17.47714 | 121.80011 | 18956 ft | 382 kts | 140° |
| 2026-04-16 06:12 | -17.49699 | 121.81847 | 18463 ft | 381 kts | 140° |
| 2026-04-16 06:13 | -17.51676 | 121.83675 | 18022 ft | 377 kts | 140° |
| 2026-04-16 06:13 | -17.53639 | 121.85488 | 17554 ft | 375 kts | 140° |
| 2026-04-16 06:13 | -17.55579 | 121.87278 | 17099 ft | 369 kts | 140° |
| 2026-04-16 06:13 | -17.57490 | 121.89045 | 16653 ft | 363 kts | 140° |
| 2026-04-16 06:14 | -17.59365 | 121.90784 | 16231 ft | 356 kts | 140° |
| 2026-04-16 06:14 | -17.61205 | 121.92491 | 15800 ft | 351 kts | 140° |
| 2026-04-16 06:14 | -17.63022 | 121.94171 | 15366 ft | 346 kts | 140° |
| 2026-04-16 06:14 | -17.64781 | 121.95864 | 14944 ft | 341 kts | 132° |
| 2026-04-16 06:15 | -17.66101 | 121.97874 | 14519 ft | 330 kts | 121° |
| 2026-04-16 06:15 | -17.67253 | 121.99933 | 14079 ft | 325 kts | 121° |
| 2026-04-16 06:15 | -17.68378 | 122.01942 | 13678 ft | 322 kts | 121° |
| 2026-04-16 06:15 | -17.69504 | 122.03956 | 13251 ft | 318 kts | 120° |
| 2026-04-16 06:16 | -17.70616 | 122.05947 | 12834 ft | 314 kts | 120° |
| 2026-04-16 06:16 | -17.71716 | 122.07916 | 12400 ft | 311 kts | 120° |
| 2026-04-16 06:16 | -17.72808 | 122.09873 | 11767 ft | 312 kts | 120° |
| 2026-04-16 06:16 | -17.73925 | 122.11873 | 10807 ft | 321 kts | 121° |
| 2026-04-16 06:17 | -17.75048 | 122.13885 | 10211 ft | 315 kts | 121° |
| 2026-04-16 06:17 | -17.76132 | 122.15832 | 9862 ft | 302 kts | 121° |
| 2026-04-16 06:17 | -17.77174 | 122.17701 | 9461 ft | 292 kts | 120° |
| 2026-04-16 06:17 | -17.78173 | 122.19496 | 9165 ft | 279 kts | 120° |
| 2026-04-16 06:18 | -17.79134 | 122.21224 | 8850 ft | 269 kts | 119° |
| 2026-04-16 06:18 | -17.80060 | 122.22893 | 8523 ft | 261 kts | 119° |
| 2026-04-16 06:18 | -17.80980 | 122.24543 | 8178 ft | 269 kts | 121° |
| 2026-04-16 06:18 | -17.82285 | 122.26001 | 7852 ft | 280 kts | 147° |
| 2026-04-16 06:19 | -17.84118 | 122.26680 | 7625 ft | 284 kts | 174° |
| 2026-04-16 06:19 | -17.86068 | 122.26412 | 7395 ft | 287 kts | 201° |
| 2026-04-16 06:19 | -17.87708 | 122.25248 | 7137 ft | 287 kts | 228° |
| 2026-04-16 06:19 | -17.88677 | 122.23438 | 6890 ft | 286 kts | 255° |
| 2026-04-16 06:20 | -17.88766 | 122.21390 | 6662 ft | 280 kts | 282° |
| 2026-04-16 06:20 | -17.88200 | 122.19457 | 6435 ft | 275 kts | 290° |
| 2026-04-16 06:20 | -17.87541 | 122.17590 | 6153 ft | 271 kts | 291° |
| 2026-04-16 06:20 | -17.86892 | 122.15790 | 5852 ft | 262 kts | 291° |
| 2026-04-16 06:21 | -17.86256 | 122.14033 | 5566 ft | 253 kts | 291° |
| 2026-04-16 06:21 | -17.85639 | 122.12323 | 5285 ft | 249 kts | 291° |
| 2026-04-16 06:21 | -17.85025 | 122.10632 | 4987 ft | 247 kts | 291° |
| 2026-04-16 06:21 | -17.84417 | 122.08952 | 4681 ft | 245 kts | 291° |
| 2026-04-16 06:22 | -17.83830 | 122.07287 | 4403 ft | 242 kts | 286° |
| 2026-04-16 06:22 | -17.83801 | 122.05570 | 4184 ft | 236 kts | 252° |
| 2026-04-16 06:22 | -17.84643 | 122.04138 | 3942 ft | 231 kts | 219° |
| 2026-04-16 06:22 | -17.86053 | 122.03404 | 3689 ft | 227 kts | 187° |
| 2026-04-16 06:23 | -17.87605 | 122.03539 | 3446 ft | 225 kts | 159° |
| 2026-04-16 06:23 | -17.89022 | 122.04225 | 3189 ft | 224 kts | 143° |
| 2026-04-16 06:23 | -17.90089 | 122.05385 | 3030 ft | 222 kts | 121° |
| 2026-04-16 06:23 | -17.90651 | 122.06881 | 2987 ft | 218 kts | 105° |
| 2026-04-16 06:24 | -17.91055 | 122.08416 | 2673 ft | 218 kts | 105° |
| 2026-04-16 06:24 | -17.91459 | 122.09943 | 2361 ft | 215 kts | 105° |
| 2026-04-16 06:24 | -17.91849 | 122.11412 | 2067 ft | 204 kts | 106° |
| 2026-04-16 06:24 | -17.92222 | 122.12806 | 1825 ft | 192 kts | 106° |
| 2026-04-16 06:25 | -17.92569 | 122.14111 | 1551 ft | 180 kts | 107° |
| 2026-04-16 06:25 | -17.92893 | 122.15336 | 1305 ft | 167 kts | 107° |
| 2026-04-16 06:25 | -17.93185 | 122.16443 | 1105 ft | 150 kts | 107° |
| 2026-04-16 06:25 | -17.93462 | 122.17474 | 919 ft | 144 kts | 108° |
| 2026-04-16 06:26 | -17.93731 | 122.18480 | 721 ft | 142 kts | 108° |
| 2026-04-16 06:26 | -17.93997 | 122.19475 | 530 ft | 141 kts | 107° |
| 2026-04-16 06:26 | -17.94260 | 122.20465 | 353 ft | 140 kts | 107° |
| 2026-04-16 06:26 | -17.94532 | 122.21448 | 142 ft | 140 kts | 108° |
| 2026-04-16 06:27 | -17.94788 | 122.22396 | 54 ft | 122 kts | 105° |
| 2026-04-16 06:27 | -17.94969 | 122.23079 | 45 ft | 72 kts | 106° |
| 2026-04-16 06:27 | -17.95057 | 122.23413 | 37 ft | 21 kts | 105° |
| 2026-04-16 06:27 | -17.95084 | 122.23509 | 38 ft | 15 kts | 109° |
| 2026-04-16 06:28 | -17.95113 | 122.23626 | 37 ft | 18 kts | 103° |
| 2026-04-16 06:28 | -17.95126 | 122.23734 | 33 ft | 9 kts | 72° |
| 2026-04-16 06:28 | -17.95131 | 122.23769 | 33 ft | 8 kts | 136° |
| 2026-04-16 06:28 | -17.95145 | 122.23735 | 35 ft | 5 kts | 290° |
| 2026-04-16 06:29 | -17.95132 | 122.23691 | 36 ft | 10 kts | 286° |
| 2026-04-16 06:29 | -17.95108 | 122.23604 | 37 ft | 14 kts | 284° |
| 2026-04-16 06:29 | -17.95082 | 122.23501 | 35 ft | 15 kts | 286° |
| 2026-04-16 06:29 | -17.95062 | 122.23418 | 39 ft | 7 kts | 270° |
| 2026-04-16 06:30 | -17.95099 | 122.23383 | 40 ft | 8 kts | 196° |
| 2026-04-16 06:30 | -17.95141 | 122.23372 | 40 ft | 10 kts | 192° |
| 2026-04-16 06:30 | -17.95205 | 122.23334 | 41 ft | 12 kts | 217° |
| 2026-04-16 06:30 | -17.95283 | 122.23304 | 42 ft | 10 kts | 194° |
| 2026-04-16 06:31 | -17.95340 | 122.23289 | 40 ft | 5 kts | 194° |
| 2026-04-16 06:31 | -17.95357 | 122.23283 | 42 ft | 0 kts | 196° |